createdAt,value
2023-04-12T00:01:10.393Z,1.40
2023-04-12T00:03:41.725Z,1.67
2023-04-12T00:06:18.629Z,1.13
2023-04-12T00:08:51.882Z,1.10
2023-04-12T00:11:23.326Z,0.80
2023-04-12T00:13:55.600Z,1.10
2023-04-12T00:16:28.415Z,1.00
2023-04-12T00:21:43.326Z,1.33
2023-04-12T00:24:15.269Z,0.77
2023-04-12T00:26:49.351Z,1.20
2023-04-12T00:29:19.499Z,1.37
2023-04-12T00:31:50.046Z,1.17
2023-04-12T00:34:20.293Z,1.07
2023-04-12T00:36:48.734Z,1.00
2023-04-12T00:39:19.227Z,1.20
2023-04-12T00:41:51.005Z,0.87
2023-04-12T00:44:22.983Z,1.03
2023-04-12T00:46:52.371Z,1.10
2023-04-12T00:49:24.495Z,0.90
2023-04-12T00:51:56.212Z,1.00
2023-04-12T00:54:27.896Z,0.87
2023-04-12T00:56:59.426Z,1.07
2023-04-12T01:02:11.279Z,0.67
2023-04-12T01:04:56.996Z,1.10
2023-04-12T01:08:03.252Z,1.00
2023-04-12T01:11:05.957Z,0.90
2023-04-12T01:14:04.655Z,0.90
2023-04-12T01:16:57.716Z,1.20
2023-04-12T01:19:46.550Z,0.93
2023-04-12T01:22:51.740Z,1.00
2023-04-12T01:25:34.778Z,0.90
2023-04-12T01:28:06.259Z,0.83
2023-04-12T01:30:37.014Z,0.80
2023-04-12T01:33:10.109Z,0.97
2023-04-12T01:35:44.237Z,0.90
2023-04-12T01:38:13.736Z,0.70
2023-04-12T01:40:47.635Z,0.80
2023-04-12T01:43:16.879Z,0.90
2023-04-12T01:46:13.998Z,0.93
2023-04-12T01:48:51.095Z,0.67
2023-04-12T01:52:01.355Z,1.00
2023-04-12T01:54:32.735Z,1.00
2023-04-12T01:57:08.954Z,1.20
2023-04-12T01:59:44.237Z,0.80
2023-04-12T02:02:18.236Z,0.83
2023-04-12T02:04:51.116Z,0.87
2023-04-12T02:07:24.876Z,1.00
2023-04-12T02:09:51.834Z,0.57
2023-04-12T02:12:20.059Z,0.90
2023-04-12T02:14:54.688Z,0.80
2023-04-12T02:17:28.277Z,0.97
2023-04-12T02:20:00.632Z,1.20
2023-04-12T02:22:28.746Z,0.80
2023-04-12T02:25:03.292Z,0.80
2023-04-12T02:27:31.334Z,0.73
2023-04-12T02:30:02.227Z,0.80
2023-04-12T02:32:35.108Z,0.80
2023-04-12T02:35:03.244Z,0.80
2023-04-12T02:37:34.572Z,0.90
2023-04-12T02:40:09.248Z,0.90
2023-04-12T02:42:46.383Z,0.77
2023-04-12T02:45:17.693Z,1.00
2023-04-12T02:47:47.340Z,0.77
2023-04-12T02:50:18.115Z,0.70
2023-04-12T02:52:47.353Z,0.53
2023-04-12T02:55:17.802Z,0.90
2023-04-12T02:57:48.495Z,0.80
2023-04-12T03:00:22.149Z,0.80
2023-04-12T03:02:54.146Z,0.57
2023-04-12T03:05:23.309Z,0.70
2023-04-12T03:07:54.843Z,0.73
2023-04-12T03:10:26.279Z,0.80
2023-04-12T03:12:57.998Z,0.90
2023-04-12T03:15:32.205Z,0.60
2023-04-12T03:18:06.490Z,0.80
2023-04-12T03:20:36.098Z,0.67
2023-04-12T03:23:07.076Z,0.70
2023-04-12T03:25:39.298Z,0.70
2023-04-12T03:28:09.114Z,0.80
2023-04-12T03:30:39.642Z,0.40
2023-04-12T03:33:13.946Z,0.60
2023-04-12T03:35:44.690Z,0.63
2023-04-12T03:38:15.111Z,0.57
2023-04-12T03:40:43.690Z,0.67
2023-04-12T03:43:11.480Z,0.80
2023-04-12T03:48:29.860Z,1.00
2023-04-12T03:51:03.025Z,0.90
2023-04-12T03:53:34.694Z,0.53
2023-04-12T03:56:06.318Z,0.73
2023-04-12T03:58:35.905Z,0.80
2023-04-12T04:01:17.407Z,0.57
2023-04-12T04:03:49.081Z,0.57
2023-04-12T04:06:20.568Z,0.70
2023-04-12T04:08:51.010Z,1.00
2023-04-12T04:11:21.499Z,0.70
2023-04-12T04:13:49.580Z,0.70
2023-04-12T04:16:20.037Z,0.63
2023-04-12T04:18:53.228Z,0.80
2023-04-12T04:21:25.107Z,0.60
2023-04-12T04:23:57.416Z,0.73
2023-04-12T04:26:40.378Z,0.50
2023-04-12T04:31:55.704Z,0.50
2023-04-12T04:34:27.898Z,0.70
2023-04-12T04:37:01.852Z,0.70
2023-04-12T04:39:33.237Z,0.57
2023-04-12T04:42:03.246Z,0.60
2023-04-12T04:44:40.149Z,0.83
2023-04-12T04:47:12.104Z,0.60
2023-04-12T04:49:42.364Z,0.47
2023-04-12T04:52:14.911Z,0.70
2023-04-12T04:54:44.108Z,0.53
2023-04-12T04:59:56.591Z,0.57
2023-04-12T05:02:28.596Z,0.60
2023-04-12T05:05:03.248Z,0.40
2023-04-12T05:07:33.655Z,0.60
2023-04-12T05:10:08.766Z,0.50
2023-04-12T05:12:43.150Z,0.60
2023-04-12T05:15:12.859Z,0.60
2023-04-12T05:17:43.164Z,0.40
2023-04-12T05:20:13.582Z,0.50
2023-04-12T05:22:41.380Z,0.50
2023-04-12T05:25:15.788Z,0.60
2023-04-12T05:27:47.284Z,0.50
2023-04-12T05:30:18.305Z,0.70
2023-04-12T05:32:49.828Z,0.50
2023-04-12T05:35:21.324Z,0.60
2023-04-12T05:37:52.808Z,0.40
2023-04-12T05:40:24.656Z,0.50
2023-04-12T05:42:55.804Z,0.70
2023-04-12T05:45:24.168Z,0.77
2023-04-12T05:47:56.222Z,0.70
2023-04-12T05:50:26.648Z,0.70
2023-04-12T05:53:04.877Z,0.40
2023-04-12T05:55:37.748Z,0.57
2023-04-12T05:58:08.447Z,0.50
2023-04-12T06:00:38.529Z,0.60
2023-04-12T06:03:14.899Z,0.70
2023-04-12T06:05:45.740Z,0.60
2023-04-12T06:08:17.012Z,0.60
2023-04-12T06:10:46.114Z,0.60
2023-04-12T06:13:19.050Z,0.77
2023-04-12T06:15:47.222Z,0.50
2023-04-12T06:18:19.130Z,0.67
2023-04-12T06:20:49.281Z,0.50
2023-04-12T06:23:18.510Z,0.60
2023-04-12T06:25:47.755Z,0.43
2023-04-12T06:28:19.229Z,0.50
2023-04-12T06:30:50.812Z,0.50
2023-04-12T06:33:23.201Z,0.80
2023-04-12T06:35:53.062Z,13.07
2023-04-12T06:38:24.555Z,13.47
2023-04-12T06:40:56.113Z,22.10
2023-04-12T06:43:25.661Z,31.60
2023-04-12T06:46:00.538Z,32.90
2023-04-12T06:48:29.886Z,29.30
2023-04-12T06:51:02.851Z,28.03
2023-04-12T06:53:32.939Z,25.57
2023-04-12T06:56:04.816Z,25.10
2023-04-12T06:58:33.333Z,23.10
2023-04-12T07:01:17.402Z,22.77
2023-04-12T07:03:47.784Z,20.90
2023-04-12T07:06:25.711Z,20.63
2023-04-12T07:08:59.511Z,20.17
2023-04-12T07:11:29.934Z,16.50
2023-04-12T07:14:01.808Z,16.97
2023-04-12T07:16:36.017Z,15.57
2023-04-12T07:19:07.899Z,14.87
2023-04-12T07:21:37.396Z,13.93
2023-04-12T07:24:10.890Z,13.50
2023-04-12T07:26:42.424Z,13.13
2023-04-12T07:29:11.373Z,12.80
2023-04-12T07:31:40.798Z,12.63
2023-04-12T07:34:09.165Z,11.00
2023-04-12T07:36:38.023Z,10.43
2023-04-12T07:39:06.945Z,9.77
2023-04-12T07:41:37.269Z,9.67
2023-04-12T07:44:08.596Z,9.67
2023-04-12T07:46:37.890Z,8.57
2023-04-12T07:49:07.732Z,8.67
2023-04-12T07:51:38.128Z,8.20
2023-04-12T07:54:06.570Z,7.43
2023-04-12T07:56:50.610Z,7.50
2023-04-12T07:59:20.730Z,7.30
2023-04-12T08:01:51.015Z,6.57
2023-04-12T08:04:23.590Z,6.23
2023-04-12T08:07:14.211Z,6.43
2023-04-12T08:09:43.560Z,6.40
2023-04-12T08:15:00.671Z,5.33
2023-04-12T08:17:34.707Z,5.70
2023-04-12T08:20:04.950Z,5.07
2023-04-12T08:22:32.832Z,5.60
2023-04-12T08:25:00.844Z,5.43
2023-04-12T08:27:32.334Z,4.73
2023-04-12T08:32:50.058Z,4.27
2023-04-12T08:35:19.994Z,4.17
2023-04-12T08:37:50.163Z,3.87
2023-04-12T08:40:21.487Z,4.23
2023-04-12T08:42:54.758Z,3.73
2023-04-12T08:45:32.661Z,3.63
2023-04-12T08:48:04.815Z,3.47
2023-04-12T08:50:33.475Z,3.77
2023-04-12T08:53:05.515Z,3.20
2023-04-12T08:55:34.582Z,3.33
2023-04-12T08:58:09.956Z,3.63
2023-04-12T09:00:43.444Z,2.80
2023-04-12T09:03:12.649Z,2.83
2023-04-12T09:05:41.983Z,3.10
2023-04-12T09:08:08.901Z,3.10
2023-04-12T09:10:42.259Z,3.00
2023-04-12T09:13:13.250Z,3.10
2023-04-12T09:15:50.180Z,2.37
2023-04-12T09:18:21.482Z,2.50
2023-04-12T09:20:51.855Z,2.37
2023-04-12T09:26:12.164Z,1.90
2023-04-12T09:28:48.475Z,1.70
2023-04-12T09:31:23.419Z,1.80
2023-04-12T09:33:52.086Z,2.40
2023-04-12T09:36:21.309Z,2.33
2023-04-12T09:39:05.303Z,1.77
2023-04-12T09:41:38.714Z,2.07
2023-04-12T09:44:13.087Z,2.17
2023-04-12T09:46:57.646Z,2.03
2023-04-12T09:49:45.506Z,1.87
2023-04-12T09:52:17.508Z,1.70
2023-04-12T09:54:51.385Z,1.60
2023-04-12T09:57:23.602Z,1.57
2023-04-12T10:02:46.858Z,1.67
2023-04-12T10:05:20.900Z,1.80
2023-04-12T10:07:52.191Z,1.70
2023-04-12T10:10:20.876Z,1.60
2023-04-12T10:12:56.099Z,1.43
2023-04-12T10:15:25.759Z,2.03
2023-04-12T10:17:55.813Z,1.90
2023-04-12T10:20:29.159Z,1.53
2023-04-12T10:23:01.877Z,1.53
2023-04-12T10:25:33.889Z,1.87
2023-04-12T10:28:24.802Z,1.60
2023-04-12T10:30:59.665Z,1.80
2023-04-12T10:33:28.394Z,1.70
2023-04-12T10:36:10.393Z,2.00
2023-04-12T10:39:13.537Z,1.47
2023-04-12T10:42:21.507Z,2.00
2023-04-12T10:44:57.498Z,2.03
2023-04-12T10:47:54.067Z,1.50
2023-04-12T10:50:36.474Z,1.87
2023-04-12T10:53:25.535Z,2.23
2023-04-12T10:55:57.756Z,1.60
2023-04-12T10:58:53.560Z,1.40
2023-04-12T11:04:27.870Z,1.73
2023-04-12T11:07:06.506Z,1.47
2023-04-12T11:10:09.668Z,1.60
2023-04-12T11:12:38.662Z,1.50
2023-04-12T11:15:22.033Z,1.70
2023-04-12T11:18:03.863Z,2.27
2023-04-12T11:20:36.193Z,1.87
2023-04-12T11:23:11.274Z,1.73
2023-04-12T11:25:42.877Z,2.03
2023-04-12T11:28:28.471Z,1.97
2023-04-12T11:30:58.527Z,2.20
2023-04-12T11:33:35.684Z,2.03
2023-04-12T11:36:14.367Z,2.07
2023-04-12T11:38:48.248Z,2.10
2023-04-12T11:41:18.861Z,1.70
2023-04-12T11:43:51.735Z,1.70
2023-04-12T11:46:19.749Z,1.70
2023-04-12T11:48:53.343Z,1.97
2023-04-12T11:51:34.098Z,1.77
2023-04-12T11:54:04.177Z,1.57
2023-04-12T11:56:35.905Z,1.93
2023-04-12T11:59:07.396Z,1.87
2023-04-12T12:01:48.556Z,1.90
2023-04-12T12:04:20.062Z,2.07
2023-04-12T12:06:53.197Z,1.90
2023-04-12T12:09:25.206Z,2.03
2023-04-12T12:11:57.169Z,1.80
2023-04-12T12:14:31.001Z,2.10
2023-04-12T12:17:07.271Z,2.20
2023-04-12T12:19:37.483Z,1.87
2023-04-12T12:22:21.985Z,1.70
2023-04-12T12:25:10.374Z,2.17
2023-04-12T12:27:47.048Z,1.73
2023-04-12T12:30:29.024Z,1.83
2023-04-12T12:33:02.340Z,1.83
2023-04-12T12:35:37.002Z,1.60
2023-04-12T12:38:11.767Z,1.70
2023-04-12T12:40:40.271Z,1.80
2023-04-12T12:43:17.334Z,1.93
2023-04-12T12:45:45.826Z,1.70
2023-04-12T12:48:16.689Z,1.77
2023-04-12T12:50:46.787Z,1.80
2023-04-12T12:53:22.601Z,1.90
2023-04-12T12:55:56.271Z,1.80
2023-04-12T12:58:26.589Z,2.17
2023-04-12T13:00:58.360Z,2.03
2023-04-12T13:03:27.135Z,1.83
2023-04-12T13:05:59.590Z,1.87
2023-04-12T13:08:32.458Z,1.53
2023-04-12T13:11:02.511Z,1.60
2023-04-12T13:13:32.691Z,1.63
2023-04-12T13:16:02.937Z,1.67
2023-04-12T13:18:34.863Z,2.03
2023-04-12T13:21:06.944Z,1.50
2023-04-12T13:23:38.583Z,1.70
2023-04-12T13:26:08.944Z,1.73
2023-04-12T13:28:37.326Z,1.63
2023-04-12T13:31:06.907Z,1.37
2023-04-12T13:33:38.807Z,1.60
2023-04-12T13:36:09.025Z,1.50
2023-04-12T13:38:40.321Z,1.60
2023-04-12T13:41:08.772Z,1.27
2023-04-12T13:43:41.638Z,1.50
2023-04-12T13:46:15.518Z,1.83
2023-04-12T13:48:44.227Z,1.50
2023-04-12T13:51:12.812Z,1.40
2023-04-12T13:53:44.370Z,1.60
2023-04-12T13:56:14.992Z,1.70
2023-04-12T13:58:46.693Z,1.73
2023-04-12T14:01:18.765Z,1.33
2023-04-12T14:03:51.023Z,1.57
2023-04-12T14:06:21.847Z,1.23
2023-04-12T14:08:53.650Z,1.63
2023-04-12T14:11:26.892Z,1.40
2023-04-12T14:13:57.060Z,1.60
2023-04-12T14:16:27.085Z,1.47
2023-04-12T14:18:56.572Z,1.20
2023-04-12T14:21:32.048Z,1.30
2023-04-12T14:24:00.973Z,1.30
2023-04-12T14:26:30.490Z,1.50
2023-04-12T14:29:00.854Z,1.40
2023-04-12T14:31:28.722Z,1.43
2023-04-12T14:33:56.894Z,1.10
2023-04-12T14:36:36.652Z,1.10
2023-04-12T14:39:09.939Z,1.10
2023-04-12T14:41:41.671Z,1.20
2023-04-12T14:44:11.835Z,1.20
2023-04-12T14:46:41.444Z,1.20
2023-04-12T14:49:13.832Z,1.20
2023-04-12T14:51:41.409Z,1.10
2023-04-12T14:54:14.484Z,1.10
2023-04-12T14:56:51.993Z,1.20
2023-04-12T14:59:22.815Z,0.93
2023-04-12T15:01:49.728Z,1.10
2023-04-12T15:04:20.511Z,0.93
2023-04-12T15:06:49.507Z,1.10
2023-04-12T15:09:19.594Z,1.27
2023-04-12T15:12:09.393Z,1.23
2023-04-12T15:14:37.403Z,0.87
2023-04-12T15:17:09.004Z,0.97
2023-04-12T15:19:40.264Z,1.10
2023-04-12T15:22:19.789Z,1.20
2023-04-12T15:27:41.872Z,1.50
2023-04-12T15:30:18.262Z,1.20
2023-04-12T15:32:50.059Z,1.53
2023-04-12T15:35:26.408Z,1.03
2023-04-12T15:37:57.603Z,1.03
2023-04-12T15:40:28.150Z,1.20
2023-04-12T15:42:58.717Z,1.17
2023-04-12T15:45:28.307Z,1.30
2023-04-12T15:47:56.496Z,1.10
2023-04-12T15:50:28.197Z,1.33
2023-04-12T15:52:58.417Z,1.00
2023-04-12T15:55:28.809Z,1.00
2023-04-12T15:57:57.362Z,1.50
2023-04-12T16:00:29.561Z,0.90
2023-04-12T16:03:01.584Z,1.20
2023-04-12T16:05:32.394Z,0.97
2023-04-12T16:08:12.956Z,0.90
2023-04-12T16:10:41.877Z,1.40
2023-04-12T16:13:13.471Z,1.20
2023-04-12T16:15:47.261Z,1.20
2023-04-12T16:18:20.261Z,1.10
2023-04-12T16:20:50.750Z,1.17
2023-04-12T16:23:22.158Z,1.07
2023-04-12T16:25:52.313Z,1.10
2023-04-12T16:28:24.994Z,1.13
2023-04-12T16:30:58.551Z,1.30
2023-04-12T16:33:31.019Z,1.20
2023-04-12T16:36:00.544Z,1.30
2023-04-12T16:38:29.067Z,1.30
2023-04-12T16:40:58.427Z,1.13
2023-04-12T16:46:13.563Z,1.00
2023-04-12T16:48:44.193Z,0.90
2023-04-12T16:51:16.645Z,1.13
2023-04-12T16:53:47.242Z,1.03
2023-04-12T16:56:16.897Z,1.10
2023-04-12T16:58:49.058Z,0.90
2023-04-12T17:01:20.162Z,1.00
2023-04-12T17:03:51.412Z,1.00
2023-04-12T17:09:09.883Z,1.00
2023-04-12T17:11:38.284Z,1.07
2023-04-12T17:14:07.253Z,0.90
2023-04-12T17:16:38.052Z,0.90
2023-04-12T17:19:10.028Z,1.07
2023-04-12T17:21:41.527Z,1.10
2023-04-12T17:24:14.736Z,1.00
2023-04-12T17:26:47.179Z,0.97
2023-04-12T17:29:19.905Z,1.10
2023-04-12T17:31:55.019Z,1.00
2023-04-12T17:34:25.734Z,1.20
2023-04-12T17:36:57.558Z,1.03
2023-04-12T17:39:28.445Z,1.10
2023-04-12T17:41:58.271Z,0.90
2023-04-12T17:44:28.535Z,1.00
2023-04-12T17:46:59.652Z,1.10
2023-04-12T17:49:30.274Z,1.17
2023-04-12T17:52:04.433Z,0.87
2023-04-12T17:54:36.305Z,0.80
2023-04-12T17:57:09.197Z,0.80
2023-04-12T17:59:40.233Z,0.83
2023-04-12T18:02:12.256Z,0.97
2023-04-12T18:04:41.278Z,0.80
2023-04-12T18:07:13.825Z,1.10
2023-04-12T18:09:48.678Z,1.03
2023-04-12T18:12:21.623Z,1.23
2023-04-12T18:14:52.529Z,0.87
2023-04-12T18:17:25.081Z,1.10
2023-04-12T18:19:56.431Z,1.13
2023-04-12T18:22:25.502Z,1.07
2023-04-12T18:24:55.786Z,1.07
2023-04-12T18:27:27.597Z,1.07
2023-04-12T18:29:56.593Z,0.80
2023-04-12T18:32:28.186Z,0.80
2023-04-12T18:34:58.387Z,1.10
2023-04-12T18:37:27.524Z,1.00
2023-04-12T18:39:59.521Z,0.83
2023-04-12T18:42:29.730Z,1.17
2023-04-12T18:44:59.408Z,0.83
2023-04-12T18:47:31.013Z,0.83
2023-04-12T18:50:00.432Z,0.87
2023-04-12T18:52:31.484Z,1.00
2023-04-12T18:54:59.553Z,1.93
2023-04-12T18:57:26.707Z,2.80
2023-04-12T19:00:02.449Z,2.30
2023-04-12T19:02:35.015Z,2.43
2023-04-12T19:05:03.440Z,2.37
2023-04-12T19:07:35.619Z,1.83
2023-04-12T19:10:05.893Z,1.90
2023-04-12T19:12:35.469Z,2.13
2023-04-12T19:15:07.730Z,1.73
2023-04-12T19:17:42.659Z,2.10
2023-04-12T19:20:12.696Z,2.03
2023-04-12T19:22:41.533Z,1.70
2023-04-12T19:25:12.341Z,1.30
2023-04-12T19:27:44.453Z,1.50
2023-04-12T19:30:13.049Z,1.60
2023-04-12T19:32:45.775Z,1.37
2023-04-12T19:35:18.569Z,1.63
2023-04-12T19:40:34.022Z,1.33
2023-04-12T19:43:07.329Z,1.30
2023-04-12T19:45:39.226Z,1.20
2023-04-12T19:48:23.836Z,1.20
2023-04-12T19:50:54.044Z,1.30
2023-04-12T19:53:24.574Z,1.40
2023-04-12T19:55:58.795Z,1.20
2023-04-12T19:58:31.780Z,1.30
2023-04-12T20:03:47.768Z,1.23
2023-04-12T20:06:20.545Z,1.33
2023-04-12T20:08:52.958Z,1.20
2023-04-12T20:11:30.535Z,1.43
2023-04-12T20:13:59.001Z,1.20
2023-04-12T20:16:34.987Z,1.30
2023-04-12T20:19:05.328Z,1.10
2023-04-12T20:21:37.920Z,1.10
2023-04-12T20:24:11.118Z,1.00
2023-04-12T20:26:40.393Z,1.03
2023-04-12T20:29:10.950Z,1.07
2023-04-12T20:31:42.185Z,0.73
2023-04-12T20:34:14.012Z,1.07
2023-04-12T20:37:05.427Z,0.80
2023-04-12T20:39:37.542Z,0.77
2023-04-12T20:42:28.750Z,1.00
2023-04-12T20:45:00.833Z,0.87
2023-04-12T20:47:32.551Z,1.10
2023-04-12T20:50:02.643Z,0.80
2023-04-12T20:52:33.144Z,0.73
2023-04-12T20:55:02.688Z,0.87
2023-04-12T20:57:34.044Z,0.80
2023-04-12T21:00:20.726Z,0.60
2023-04-12T21:02:49.832Z,0.90
2023-04-12T21:05:20.336Z,0.60
2023-04-12T21:07:50.207Z,0.70
2023-04-12T21:10:40.769Z,0.60
2023-04-12T21:13:12.147Z,0.90
2023-04-12T21:15:43.427Z,0.73
2023-04-12T21:18:12.483Z,0.80
2023-04-12T21:20:40.871Z,0.83
2023-04-12T21:23:32.541Z,0.70
2023-04-12T21:26:06.583Z,0.70
2023-04-12T21:28:36.536Z,0.80
2023-04-12T21:31:08.562Z,0.60
2023-04-12T21:33:38.906Z,0.70
2023-04-12T21:38:54.511Z,0.90
2023-04-12T21:41:26.661Z,0.50
2023-04-12T21:43:56.666Z,0.60
2023-04-12T21:46:32.131Z,0.67
2023-04-12T21:49:01.628Z,0.70
2023-04-12T21:51:32.953Z,0.37
2023-04-12T21:54:05.108Z,0.60
2023-04-12T21:56:34.451Z,0.50
2023-04-12T21:59:07.593Z,0.53
2023-04-12T22:01:40.904Z,0.40
2023-04-12T22:04:16.017Z,0.60
2023-04-12T22:06:46.972Z,0.47
2023-04-12T22:09:17.597Z,0.60
2023-04-12T22:11:52.151Z,0.50
2023-04-12T22:14:22.755Z,0.70
2023-04-12T22:16:55.389Z,0.57
2023-04-12T22:19:34.186Z,0.40
2023-04-12T22:22:05.306Z,0.37
2023-04-12T22:24:36.418Z,0.60
2023-04-12T22:29:50.137Z,0.70
2023-04-12T22:32:22.285Z,0.60
2023-04-12T22:35:05.191Z,0.50
2023-04-12T22:37:49.289Z,0.60
2023-04-12T22:40:18.148Z,0.50
2023-04-12T22:42:48.266Z,0.30
2023-04-12T22:45:21.323Z,0.67
2023-04-12T22:47:51.876Z,0.40
2023-04-12T22:50:26.122Z,0.50
2023-04-12T22:52:58.195Z,0.70
2023-04-12T22:55:31.421Z,0.80
2023-04-12T22:58:03.906Z,0.60
2023-04-12T23:00:38.703Z,0.70
2023-04-12T23:03:15.367Z,0.77
2023-04-12T23:05:44.790Z,0.93
2023-04-12T23:08:24.576Z,0.80
2023-04-12T23:10:55.860Z,0.57
2023-04-12T23:13:27.598Z,0.80
2023-04-12T23:16:04.219Z,0.80
2023-04-12T23:18:33.189Z,0.70
2023-04-12T23:21:04.194Z,0.90
2023-04-12T23:23:32.362Z,0.60
2023-04-12T23:26:03.882Z,0.80
2023-04-12T23:28:33.087Z,0.90
2023-04-12T23:31:03.995Z,0.70
2023-04-12T23:33:36.230Z,0.90
2023-04-12T23:36:08.690Z,0.87
2023-04-12T23:38:55.254Z,0.80
2023-04-12T23:41:25.005Z,0.90
2023-04-12T23:43:59.681Z,0.87
2023-04-12T23:46:32.122Z,0.70
2023-04-12T23:49:00.950Z,0.90
2023-04-12T23:51:29.270Z,0.70
2023-04-12T23:54:00.982Z,0.67
2023-04-12T23:56:32.288Z,0.70
2023-04-12T23:59:02.288Z,0.50
